Terminal Aerodrome Forecast
Issued by NWS

Home | Current Version | Previous Version | Text Only | Print | Product List | Glossary On
Versions: 1 2 3 4 5 6 7 8 9 10 11 12 13 14 15 16 17 18 19 20 21 22 23 24
000
FTUS43 KSGF 302239 AAE
TAFJLN
TAF AMD
KJLN 302239Z 3023/3118 26012KT P6SM OVC010
     FM310600 30006KT P6SM OVC008
     FM311200 36005KT P6SM BKN010
     FM311700 04005KT P6SM SCT035=

USA.gov is the U.S. government's official web portal to all federal, state and local government web resources and services.